Time;durP1;ratioP1;P1;durP2;ratioP2;P2;SDS_P1;SDS_P2;PMS_P1;PMS_P2;Temp;Humidity;BMP_temperature;BMP_pressure;BME280_temperature;BME280_humidity;BME280_pressure;Samples;Min_cycle;Max_cycle;Signal;HPM_P1;HPM_P2
2023/07/29 00:02:19;;;;;;;3.33;2.60;;;;;;;;;;5006372;28;20359;-69
2023/07/29 00:04:44;;;;;;;4.03;2.43;;;;;;;;;;4987156;28;20867;-69
2023/07/29 00:07:09;;;;;;;4.13;2.60;;;;;;;;;;4987088;28;20552;-70
2023/07/29 00:09:34;;;;;;;3.97;2.50;;;;;;;;;;4996959;28;20284;-69
2023/07/29 00:11:59;;;;;;;3.67;2.40;;;;;;;;;;4991058;28;20043;-69
2023/07/29 00:14:25;;;;;;;3.43;2.50;;;;;;;;;;4987071;28;20096;-68
2023/07/29 00:16:50;;;;;;;3.50;2.60;;;;;;;;;;4989559;28;20281;-69
2023/07/29 00:19:15;;;;;;;3.33;2.40;;;;;;;;;;4987062;28;20030;-68
2023/07/29 00:21:41;;;;;;;3.57;2.43;;;;;;;;;;4998773;28;20343;-68
2023/07/29 00:24:06;;;;;;;4.75;2.67;;;;;;;;;;4995962;28;20301;-69
2023/07/29 00:26:31;;;;;;;3.67;2.60;;;;;;;;;;4986547;28;20038;-68
2023/07/29 00:28:57;;;;;;;6.20;2.65;;;;;;;;;;4986468;28;20033;-69
2023/07/29 00:31:22;;;;;;;5.27;2.40;;;;;;;;;;5005417;28;20029;-70
2023/07/29 00:33:48;;;;;;;4.68;2.92;;;;;;;;;;4999618;28;20905;-68
2023/07/29 00:36:13;;;;;;;4.80;2.60;;;;;;;;;;4985670;28;20035;-70
2023/07/29 00:38:38;;;;;;;3.30;2.60;;;;;;;;;;4985193;28;20125;-68
2023/07/29 00:41:03;;;;;;;4.93;2.53;;;;;;;;;;4986536;28;20656;-68
2023/07/29 00:43:29;;;;;;;7.07;2.67;;;;;;;;;;5005951;28;20542;-70
2023/07/29 00:45:54;;;;;;;5.53;2.85;;;;;;;;;;4986635;28;20400;-69
2023/07/29 00:48:19;;;;;;;6.05;2.50;;;;;;;;;;5005601;28;20045;-68
2023/07/29 00:50:44;;;;;;;3.60;2.40;;;;;;;;;;5006117;28;20105;-69
2023/07/29 00:53:10;;;;;;;4.93;2.58;;;;;;;;;;5007115;28;20284;-70
2023/07/29 00:55:35;;;;;;;3.47;2.67;;;;;;;;;;5005522;28;20137;-69
2023/07/29 00:58:00;;;;;;;4.10;2.60;;;;;;;;;;4990390;28;20276;-69
2023/07/29 01:00:25;;;;;;;3.97;2.60;;;;;;;;;;4999737;28;20296;-70
2023/07/29 01:02:52;;;;;;;4.93;3.08;;;;;;;;;;5012231;28;20513;-70
2023/07/29 01:05:17;;;;;;;4.32;2.60;;;;;;;;;;4986291;28;20042;-69
2023/07/29 01:08:00;;;;;;;6.55;2.80;;;;;;;;;;4984932;28;20037;-68
2023/07/29 01:10:38;;;;;;;5.95;2.58;;;;;;;;;;4993555;28;20069;-69
2023/07/29 01:13:04;;;;;;;4.25;2.60;;;;;;;;;;5005557;28;20545;-69
2023/07/29 01:15:33;;;;;;;4.22;2.42;;;;;;;;;;4986646;28;20180;-68
2023/07/29 01:18:05;;;;;;;5.50;2.63;;;;;;;;;;4984993;28;20042;-68
2023/07/29 01:20:32;;;;;;;3.88;2.15;;;;;;;;;;4988952;28;20069;-69
2023/07/29 01:22:58;;;;;;;4.88;2.38;;;;;;;;;;4989387;28;20049;-69
2023/07/29 01:25:23;;;;;;;3.72;2.30;;;;;;;;;;4998207;28;20038;-68
2023/07/29 01:27:49;;;;;;;4.87;2.87;;;;;;;;;;4991122;28;20364;-68
2023/07/29 01:30:14;;;;;;;3.78;2.88;;;;;;;;;;5003676;28;20315;-69
2023/07/29 01:32:58;;;;;;;4.30;2.67;;;;;;;;;;5013603;28;20136;-69
2023/07/29 01:35:26;;;;;;;4.72;2.60;;;;;;;;;;4995280;28;20107;-69
2023/07/29 01:37:53;;;;;;;5.45;2.20;;;;;;;;;;4989497;28;20425;-68
2023/07/29 01:40:19;;;;;;;6.78;2.15;;;;;;;;;;4985186;28;20347;-69
2023/07/29 01:42:45;;;;;;;4.47;2.33;;;;;;;;;;4999117;28;20017;-68
2023/07/29 01:45:10;;;;;;;4.82;2.55;;;;;;;;;;4984158;28;20022;-69
2023/07/29 01:47:36;;;;;;;4.63;3.00;;;;;;;;;;5003025;28;20041;-70
2023/07/29 01:50:03;;;;;;;3.85;2.55;;;;;;;;;;4996711;28;20373;-73
2023/07/29 01:52:28;;;;;;;4.10;2.35;;;;;;;;;;4995880;28;20030;-69
2023/07/29 01:54:53;;;;;;;3.10;2.40;;;;;;;;;;5003500;28;20880;-70
2023/07/29 01:57:19;;;;;;;3.87;2.60;;;;;;;;;;5004031;28;20281;-69
2023/07/29 01:59:44;;;;;;;4.53;2.60;;;;;;;;;;4985086;28;20301;-70
2023/07/29 02:02:09;;;;;;;2.97;2.30;;;;;;;;;;4987692;28;20347;-69
2023/07/29 02:04:34;;;;;;;3.35;2.47;;;;;;;;;;4999781;28;20038;-69
2023/07/29 02:07:00;;;;;;;6.17;2.73;;;;;;;;;;4984361;28;20031;-68
2023/07/29 02:09:25;;;;;;;6.03;2.83;;;;;;;;;;4984723;28;20038;-69
2023/07/29 02:11:51;;;;;;;6.53;2.50;;;;;;;;;;4984249;28;20023;-69
2023/07/29 02:14:16;;;;;;;5.15;2.90;;;;;;;;;;5004359;28;20117;-69
2023/07/29 02:16:41;;;;;;;4.07;2.83;;;;;;;;;;5003757;28;20420;-69
2023/07/29 02:19:06;;;;;;;4.95;2.70;;;;;;;;;;5001392;28;20428;-69
2023/07/29 02:21:32;;;;;;;3.73;2.30;;;;;;;;;;5002750;28;20064;-69
2023/07/29 02:23:57;;;;;;;4.57;2.60;;;;;;;;;;4993619;28;20284;-69
2023/07/29 02:26:22;;;;;;;4.10;2.60;;;;;;;;;;4984561;28;20030;-69
2023/07/29 02:28:47;;;;;;;3.05;2.33;;;;;;;;;;4984847;28;20030;-69
2023/07/29 02:31:19;;;;;;;3.00;2.37;;;;;;;;;;4984143;28;20223;-69
2023/07/29 02:33:44;;;;;;;3.72;2.40;;;;;;;;;;5003628;28;20736;-69
2023/07/29 02:36:10;;;;;;;2.83;2.40;;;;;;;;;;4984089;28;20113;-69
2023/07/29 02:38:36;;;;;;;3.55;2.38;;;;;;;;;;4984158;28;20305;-69
2023/07/29 02:41:01;;;;;;;6.03;3.03;;;;;;;;;;4984243;28;20046;-69
2023/07/29 02:43:26;;;;;;;4.00;2.70;;;;;;;;;;5003220;28;20291;-69
2023/07/29 02:45:51;;;;;;;4.03;2.70;;;;;;;;;;4984951;28;20039;-69
2023/07/29 02:48:16;;;;;;;2.77;2.33;;;;;;;;;;4987517;28;20285;-69
2023/07/29 02:50:42;;;;;;;3.60;2.43;;;;;;;;;;4982505;28;20054;-70
2023/07/29 02:53:07;;;;;;;3.20;2.33;;;;;;;;;;4994037;28;20072;-70
2023/07/29 02:55:32;;;;;;;5.43;2.77;;;;;;;;;;4987906;28;20038;-69
2023/07/29 02:57:57;;;;;;;4.70;2.30;;;;;;;;;;4984269;28;20031;-69
2023/07/29 03:00:23;;;;;;;4.23;2.53;;;;;;;;;;4984029;28;20034;-70
2023/07/29 03:02:48;;;;;;;3.80;2.50;;;;;;;;;;4988896;28;20041;-70
2023/07/29 03:05:13;;;;;;;3.63;2.35;;;;;;;;;;5004375;28;20068;-69
2023/07/29 03:07:38;;;;;;;4.37;2.40;;;;;;;;;;5022971;28;20427;-70
2023/07/29 03:10:04;;;;;;;3.90;2.57;;;;;;;;;;5023370;28;20607;-70
2023/07/29 03:12:29;;;;;;;3.70;2.17;;;;;;;;;;5009691;28;20452;-70
2023/07/29 03:14:56;;;;;;;3.50;2.53;;;;;;;;;;5020219;28;20075;-69
2023/07/29 03:17:21;;;;;;;3.67;2.47;;;;;;;;;;5021567;28;20084;-68
2023/07/29 03:19:46;;;;;;;4.87;2.97;;;;;;;;;;5023197;28;20064;-69
2023/07/29 03:22:11;;;;;;;4.43;2.43;;;;;;;;;;5023094;28;20284;-70
2023/07/29 03:24:36;;;;;;;3.60;2.57;;;;;;;;;;5018956;28;20026;-69
2023/07/29 03:27:02;;;;;;;4.43;2.65;;;;;;;;;;5017449;28;20029;-70
2023/07/29 03:29:27;;;;;;;3.30;2.30;;;;;;;;;;5005228;28;20096;-69
2023/07/29 03:31:52;;;;;;;4.30;2.70;;;;;;;;;;5003055;28;20528;-69
2023/07/29 03:34:17;;;;;;;3.30;2.60;;;;;;;;;;5015835;28;20605;-70
2023/07/29 03:36:43;;;;;;;2.80;2.20;;;;;;;;;;5026566;28;20820;-70
2023/07/29 03:39:08;;;;;;;3.53;2.45;;;;;;;;;;5026804;28;20037;-69
2023/07/29 03:41:33;;;;;;;3.33;2.30;;;;;;;;;;5018200;28;20088;-70
2023/07/29 03:43:58;;;;;;;4.10;2.40;;;;;;;;;;5015707;28;20369;-70
2023/07/29 03:46:24;;;;;;;3.90;2.70;;;;;;;;;;5026105;28;20125;-70
2023/07/29 03:48:49;;;;;;;4.78;2.55;;;;;;;;;;5019311;28;20834;-70
2023/07/29 03:51:14;;;;;;;3.77;2.80;;;;;;;;;;5018326;28;20476;-70
2023/07/29 03:53:40;;;;;;;4.20;2.70;;;;;;;;;;5015360;28;20518;-70
2023/07/29 03:56:05;;;;;;;5.27;3.00;;;;;;;;;;5025236;28;20072;-69
2023/07/29 03:58:30;;;;;;;3.53;2.30;;;;;;;;;;5017578;28;20133;-70
2023/07/29 04:00:55;;;;;;;4.50;2.70;;;;;;;;;;5024513;28;20314;-70
2023/07/29 04:03:20;;;;;;;5.37;2.80;;;;;;;;;;5024758;28;20299;-69
2023/07/29 04:05:46;;;;;;;3.20;2.63;;;;;;;;;;5023069;28;20034;-70
2023/07/29 04:08:11;;;;;;;4.47;2.70;;;;;;;;;;5025780;28;20583;-70
2023/07/29 04:10:37;;;;;;;5.77;3.20;;;;;;;;;;5018938;28;20075;-69
2023/07/29 04:13:03;;;;;;;4.18;3.17;;;;;;;;;;5007376;28;20124;-70
2023/07/29 04:15:28;;;;;;;4.30;2.88;;;;;;;;;;5024748;28;20535;-70
2023/07/29 04:17:53;;;;;;;3.50;2.50;;;;;;;;;;5026247;28;20072;-70
2023/07/29 04:20:18;;;;;;;4.87;2.73;;;;;;;;;;5014539;28;20041;-70
2023/07/29 04:22:44;;;;;;;4.90;2.70;;;;;;;;;;5025455;28;20284;-70
2023/07/29 04:25:09;;;;;;;3.88;2.65;;;;;;;;;;5022708;28;21034;-70
2023/07/29 04:27:34;;;;;;;5.15;2.70;;;;;;;;;;5020940;28;20120;-69
2023/07/29 04:29:59;;;;;;;4.70;2.70;;;;;;;;;;5025737;28;20030;-70
2023/07/29 04:32:25;;;;;;;4.82;2.88;;;;;;;;;;5025639;28;20048;-70
2023/07/29 04:34:50;;;;;;;5.03;2.63;;;;;;;;;;5025618;28;20109;-71
2023/07/29 04:37:16;;;;;;;5.87;2.77;;;;;;;;;;5024197;28;20468;-70
2023/07/29 04:39:41;;;;;;;4.13;2.75;;;;;;;;;;5024377;28;20510;-71
2023/07/29 04:42:06;;;;;;;4.57;2.60;;;;;;;;;;5018176;28;20041;-70
2023/07/29 04:44:31;;;;;;;4.47;2.63;;;;;;;;;;5025794;28;20497;-70
2023/07/29 04:46:57;;;;;;;4.83;2.63;;;;;;;;;;5022588;28;20600;-70
2023/07/29 04:49:22;;;;;;;5.47;2.67;;;;;;;;;;5023455;28;20641;-70
2023/07/29 04:51:47;;;;;;;4.37;2.70;;;;;;;;;;5021539;28;20272;-70
2023/07/29 04:54:12;;;;;;;4.40;2.72;;;;;;;;;;5012892;28;20292;-71
2023/07/29 04:56:38;;;;;;;5.10;2.75;;;;;;;;;;5014550;28;20483;-70
2023/07/29 04:59:03;;;;;;;5.03;3.17;;;;;;;;;;5024525;28;20132;-70
2023/07/29 05:01:28;;;;;;;4.47;2.83;;;;;;;;;;5018697;28;20112;-68
2023/07/29 05:03:54;;;;;;;4.83;2.97;;;;;;;;;;5024069;28;20046;-69
2023/07/29 05:06:19;;;;;;;5.43;2.87;;;;;;;;;;5021654;28;20056;-69
2023/07/29 05:08:44;;;;;;;5.35;3.10;;;;;;;;;;5025377;28;20277;-70
2023/07/29 05:11:09;;;;;;;4.87;3.17;;;;;;;;;;5028106;28;20040;-73
2023/07/29 05:13:35;;;;;;;3.93;2.93;;;;;;;;;;5025033;28;20049;-70
2023/07/29 05:16:00;;;;;;;5.57;2.57;;;;;;;;;;5024124;28;20033;-70
2023/07/29 05:18:25;;;;;;;5.27;3.10;;;;;;;;;;5020354;28;20297;-69
2023/07/29 05:20:50;;;;;;;3.20;2.57;;;;;;;;;;5016307;28;20115;-71
2023/07/29 05:23:16;;;;;;;4.27;2.87;;;;;;;;;;5023366;28;20029;-72
2023/07/29 05:25:41;;;;;;;4.63;3.17;;;;;;;;;;5025434;28;20363;-72
2023/07/29 05:28:06;;;;;;;5.17;2.87;;;;;;;;;;5017860;28;20128;-72
2023/07/29 05:30:32;;;;;;;6.40;3.00;;;;;;;;;;5005678;28;20080;-73
2023/07/29 05:32:57;;;;;;;5.63;2.88;;;;;;;;;;5018157;28;20296;-72
2023/07/29 05:35:23;;;;;;;3.75;2.60;;;;;;;;;;5021677;28;20468;-70
2023/07/29 05:37:48;;;;;;;5.05;2.80;;;;;;;;;;5022723;28;20026;-70
2023/07/29 05:40:13;;;;;;;3.83;2.83;;;;;;;;;;5025130;28;20037;-70
2023/07/29 05:42:38;;;;;;;5.27;3.47;;;;;;;;;;5023495;28;20025;-69
2023/07/29 05:45:04;;;;;;;5.20;3.03;;;;;;;;;;5023125;28;20147;-69
2023/07/29 05:47:29;;;;;;;4.55;3.05;;;;;;;;;;5020982;28;20044;-69
2023/07/29 05:49:54;;;;;;;5.60;3.10;;;;;;;;;;5023709;28;20038;-70
2023/07/29 05:52:20;;;;;;;5.37;2.87;;;;;;;;;;5023093;28;20178;-68
2023/07/29 05:54:45;;;;;;;5.73;3.20;;;;;;;;;;5021743;28;20413;-69
2023/07/29 05:57:13;;;;;;;3.87;2.70;;;;;;;;;;5021231;28;20052;-71
2023/07/29 05:59:38;;;;;;;4.43;3.28;;;;;;;;;;5023556;28;20025;-70
2023/07/29 06:02:04;;;;;;;5.20;3.20;;;;;;;;;;5021960;28;20400;-70
2023/07/29 06:04:29;;;;;;;4.95;3.10;;;;;;;;;;5021073;28;20464;-70
2023/07/29 06:06:55;;;;;;;5.10;3.00;;;;;;;;;;5024177;28;20776;-69
2023/07/29 06:09:21;;;;;;;4.35;2.80;;;;;;;;;;5022037;28;20643;-71
2023/07/29 06:11:46;;;;;;;4.97;3.00;;;;;;;;;;5023051;28;20041;-69
2023/07/29 06:14:11;;;;;;;6.68;2.97;;;;;;;;;;5023387;28;20060;-71
2023/07/29 06:16:36;;;;;;;4.20;2.60;;;;;;;;;;5023391;28;20064;-71
2023/07/29 06:19:02;;;;;;;3.77;3.10;;;;;;;;;;5022677;28;20466;-73
2023/07/29 06:21:27;;;;;;;4.83;2.90;;;;;;;;;;5023021;28;20423;-70
2023/07/29 06:23:52;;;;;;;4.73;2.90;;;;;;;;;;5021503;28;20288;-70
2023/07/29 06:26:18;;;;;;;6.35;3.00;;;;;;;;;;5021528;28;20044;-72
2023/07/29 06:28:43;;;;;;;5.30;3.40;;;;;;;;;;5021273;28;20030;-71
2023/07/29 06:31:08;;;;;;;3.33;2.90;;;;;;;;;;5005207;28;20296;-71
2023/07/29 06:33:33;;;;;;;6.40;2.87;;;;;;;;;;5023764;28;20125;-71
2023/07/29 06:35:58;;;;;;;5.77;3.30;;;;;;;;;;5023454;28;20801;-71
2023/07/29 06:38:24;;;;;;;4.70;2.67;;;;;;;;;;5023168;28;20393;-70
2023/07/29 06:40:49;;;;;;;4.20;3.07;;;;;;;;;;5021514;28;20534;-67
2023/07/29 06:43:14;;;;;;;5.10;2.90;;;;;;;;;;5021111;28;20738;-70
2023/07/29 06:45:39;;;;;;;5.20;3.20;;;;;;;;;;5017445;28;20421;-70
2023/07/29 06:48:05;;;;;;;6.57;3.20;;;;;;;;;;5017190;28;20119;-71
2023/07/29 06:50:30;;;;;;;4.20;2.30;;;;;;;;;;5014916;28;20077;-69
2023/07/29 06:52:55;;;;;;;6.07;2.47;;;;;;;;;;5015543;28;20077;-69
2023/07/29 06:55:20;;;;;;;3.30;2.80;;;;;;;;;;5010793;28;20042;-71
2023/07/29 06:57:45;;;;;;;4.77;3.00;;;;;;;;;;5016728;28;20033;-71
2023/07/29 07:00:11;;;;;;;3.78;2.60;;;;;;;;;;5023384;28;20048;-69
2023/07/29 07:02:36;;;;;;;4.93;3.13;;;;;;;;;;5023769;28;20455;-67
2023/07/29 07:05:01;;;;;;;5.20;2.60;;;;;;;;;;5024218;28;20390;-68
2023/07/29 07:07:26;;;;;;;3.80;2.40;;;;;;;;;;5021668;28;20040;-68
2023/07/29 07:09:52;;;;;;;4.75;2.70;;;;;;;;;;5027008;28;20033;-68
2023/07/29 07:12:17;;;;;;;6.23;3.30;;;;;;;;;;5027795;28;20044;-65
2023/07/29 07:14:42;;;;;;;8.33;3.20;;;;;;;;;;5026067;28;20026;-71
2023/07/29 07:17:07;;;;;;;4.90;3.30;;;;;;;;;;5023729;28;20030;-73
2023/07/29 07:19:33;;;;;;;6.20;3.33;;;;;;;;;;5025636;28;20089;-73
2023/07/29 07:21:58;;;;;;;3.95;2.90;;;;;;;;;;5018480;28;20492;-76
2023/07/29 07:24:23;;;;;;;6.03;2.80;;;;;;;;;;5012680;28;20037;-74
2023/07/29 07:26:48;;;;;;;5.30;3.40;;;;;;;;;;5022598;28;20037;-73
2023/07/29 07:29:14;;;;;;;6.45;3.03;;;;;;;;;;5026841;28;20053;-76
2023/07/29 07:31:39;;;;;;;5.87;3.80;;;;;;;;;;5027664;28;20524;-74
2023/07/29 07:34:04;;;;;;;3.72;2.67;;;;;;;;;;5026338;28;20478;-74
2023/07/29 07:36:30;;;;;;;5.05;3.25;;;;;;;;;;5027002;28;20037;-73
2023/07/29 07:38:55;;;;;;;4.82;3.10;;;;;;;;;;5025058;28;22456;-75
2023/07/29 07:41:20;;;;;;;24.70;5.13;;;;;;;;;;5020033;28;20460;-75
2023/07/29 07:43:46;;;;;;;6.17;3.07;;;;;;;;;;5018957;28;20504;-74
2023/07/29 07:46:11;;;;;;;7.28;3.40;;;;;;;;;;5028260;28;20284;-74
2023/07/29 07:48:37;;;;;;;8.90;3.60;;;;;;;;;;5022616;28;20045;-75
2023/07/29 07:51:09;;;;;;;10.05;3.72;;;;;;;;;;5025522;28;20370;-74
2023/07/29 07:53:35;;;;;;;8.98;3.40;;;;;;;;;;5027044;28;20041;-81
2023/07/29 07:56:00;;;;;;;8.27;3.77;;;;;;;;;;5009795;28;20422;-74
2023/07/29 07:58:25;;;;;;;5.63;3.23;;;;;;;;;;5025960;28;20293;-77
2023/07/29 08:00:50;;;;;;;6.30;3.00;;;;;;;;;;5025867;28;20073;-74
2023/07/29 08:03:16;;;;;;;6.63;3.23;;;;;;;;;;5025146;28;20033;-76
2023/07/29 08:05:41;;;;;;;8.03;3.97;;;;;;;;;;5024454;28;20045;-73
2023/07/29 08:08:06;;;;;;;7.33;3.33;;;;;;;;;;5023126;28;20068;-72
2023/07/29 08:10:31;;;;;;;5.27;3.73;;;;;;;;;;5024135;28;20814;-73
2023/07/29 08:12:57;;;;;;;7.77;3.60;;;;;;;;;;5021833;28;20060;-77
2023/07/29 08:15:22;;;;;;;9.02;3.72;;;;;;;;;;5005564;28;20318;-74
2023/07/29 08:17:47;;;;;;;5.78;3.67;;;;;;;;;;5020092;28;20029;-74
2023/07/29 08:20:13;;;;;;;7.77;3.17;;;;;;;;;;5023165;28;20046;-75
2023/07/29 08:22:38;;;;;;;7.35;3.22;;;;;;;;;;5022310;28;20292;-76
2023/07/29 08:25:03;;;;;;;4.93;3.27;;;;;;;;;;5024518;28;20055;-75
2023/07/29 08:27:29;;;;;;;7.55;3.42;;;;;;;;;;5024775;28;20295;-75
2023/07/29 08:29:54;;;;;;;4.43;3.07;;;;;;;;;;5022468;28;20168;-77
2023/07/29 08:32:19;;;;;;;4.75;3.10;;;;;;;;;;4995549;28;20312;-76
2023/07/29 08:34:45;;;;;;;7.40;3.37;;;;;;;;;;5019044;28;20488;-80
2023/07/29 08:37:10;;;;;;;7.97;3.43;;;;;;;;;;5019499;28;20287;-74
2023/07/29 08:39:35;;;;;;;7.27;3.37;;;;;;;;;;5023466;28;20296;-75
2023/07/29 08:42:06;;;;;;;4.47;3.23;;;;;;;;;;5022827;28;20052;-78
2023/07/29 08:44:36;;;;;;;5.75;3.17;;;;;;;;;;5022671;28;20337;-75
2023/07/29 08:47:02;;;;;;;7.45;3.20;;;;;;;;;;5018084;28;20504;-74
2023/07/29 08:49:28;;;;;;;7.13;2.80;;;;;;;;;;5015887;28;20040;-77
2023/07/29 08:51:53;;;;;;;5.43;3.00;;;;;;;;;;5007905;28;20037;-74
2023/07/29 08:54:19;;;;;;;7.93;2.95;;;;;;;;;;5023757;28;20045;-74
2023/07/29 08:56:44;;;;;;;5.73;2.80;;;;;;;;;;5024247;28;20037;-77
2023/07/29 08:59:10;;;;;;;4.82;2.78;;;;;;;;;;5007464;28;20033;-77
2023/07/29 09:01:35;;;;;;;3.70;2.40;;;;;;;;;;5000474;28;20756;-72
2023/07/29 09:04:01;;;;;;;5.37;2.80;;;;;;;;;;5023931;28;20041;-75
2023/07/29 09:06:27;;;;;;;3.90;2.43;;;;;;;;;;5022656;28;20111;-77
2023/07/29 09:08:53;;;;;;;3.05;2.20;;;;;;;;;;5025067;28;20044;-76
2023/07/29 09:11:19;;;;;;;4.65;2.30;;;;;;;;;;5023487;28;20030;-79
2023/07/29 09:13:44;;;;;;;4.72;2.40;;;;;;;;;;5024492;28;20535;-77
2023/07/29 09:16:09;;;;;;;4.27;2.60;;;;;;;;;;5021080;28;20068;-79
2023/07/29 09:18:34;;;;;;;4.15;2.17;;;;;;;;;;5004501;28;20295;-79
2023/07/29 09:21:03;;;;;;;6.10;2.00;;;;;;;;;;5022662;28;20044;-78
2023/07/29 09:23:28;;;;;;;3.95;1.92;;;;;;;;;;5022045;28;20034;-76
2023/07/29 09:26:03;;;;;;;2.73;1.90;;;;;;;;;;5021225;28;20068;-75
2023/07/29 09:28:32;;;;;;;4.72;2.13;;;;;;;;;;5022720;28;20280;-74
2023/07/29 09:30:57;;;;;;;3.53;1.83;;;;;;;;;;5024374;28;20128;-74
2023/07/29 09:33:25;;;;;;;4.33;2.17;;;;;;;;;;5022095;28;20207;-74
2023/07/29 09:35:50;;;;;;;3.78;1.70;;;;;;;;;;5022437;28;20511;-75
2023/07/29 09:38:16;;;;;;;7.30;1.70;;;;;;;;;;5021628;28;20048;-83
2023/07/29 09:40:41;;;;;;;3.20;1.67;;;;;;;;;;5006984;28;20064;-74
2023/07/29 09:43:07;;;;;;;2.33;1.77;;;;;;;;;;5023643;28;20295;-75
2023/07/29 09:45:33;;;;;;;3.83;1.90;;;;;;;;;;5008241;28;20544;-73
2023/07/29 09:47:59;;;;;;;3.25;1.90;;;;;;;;;;4996322;28;20097;-74
2023/07/29 09:50:24;;;;;;;2.65;1.50;;;;;;;;;;5018012;28;20037;-74
2023/07/29 09:52:50;;;;;;;2.22;1.27;;;;;;;;;;5007172;28;20037;-75
2023/07/29 09:55:17;;;;;;;3.67;1.30;;;;;;;;;;5012550;28;20655;-74
2023/07/29 09:57:42;;;;;;;2.78;1.35;;;;;;;;;;4996860;28;20037;-74
2023/07/29 10:00:11;;;;;;;3.42;1.27;;;;;;;;;;4994718;28;20037;-73
2023/07/29 10:02:37;;;;;;;2.40;1.40;;;;;;;;;;5011641;28;20067;-75
2023/07/29 10:05:03;;;;;;;3.15;1.35;;;;;;;;;;5003150;28;20353;-74
2023/07/29 10:07:28;;;;;;;2.45;1.30;;;;;;;;;;5008853;28;20083;-74
2023/07/29 10:09:54;;;;;;;2.57;1.43;;;;;;;;;;5006574;28;20017;-74
2023/07/29 10:12:19;;;;;;;1.77;1.30;;;;;;;;;;5002473;28;20041;-75
2023/07/29 10:14:44;;;;;;;1.63;1.13;;;;;;;;;;5002240;28;20284;-75
2023/07/29 10:17:09;;;;;;;3.73;1.37;;;;;;;;;;4991000;28;20269;-77
2023/07/29 10:19:35;;;;;;;2.83;1.50;;;;;;;;;;5003147;28;20291;-73
2023/07/29 10:22:01;;;;;;;2.45;1.38;;;;;;;;;;5009321;28;20281;-74
2023/07/29 10:24:29;;;;;;;1.92;1.27;;;;;;;;;;5009433;28;20821;-74
2023/07/29 10:26:56;;;;;;;2.45;1.25;;;;;;;;;;5020290;28;20018;-73
2023/07/29 10:29:22;;;;;;;1.83;1.17;;;;;;;;;;5015145;28;20591;-69
2023/07/29 10:31:47;;;;;;;2.13;1.13;;;;;;;;;;5011869;28;20100;-69
2023/07/29 10:34:12;;;;;;;3.40;1.10;;;;;;;;;;5015736;28;20068;-69
2023/07/29 10:36:37;;;;;;;2.23;1.13;;;;;;;;;;5016599;28;20481;-69
2023/07/29 10:39:03;;;;;;;2.37;1.33;;;;;;;;;;5012262;28;20370;-70
2023/07/29 10:42:06;;;;;;;3.07;1.10;;;;;;;;;;5020269;28;20022;-69
2023/07/29 10:44:45;;;;;;;2.13;1.10;;;;;;;;;;4976434;28;20198;-70
2023/07/29 10:47:16;;;;;;;2.30;1.02;;;;;;;;;;4975459;28;20500;-69
2023/07/29 10:49:42;;;;;;;1.48;0.90;;;;;;;;;;4999594;28;20057;-69
2023/07/29 10:52:07;;;;;;;2.28;1.17;;;;;;;;;;5011122;28;20128;-68
2023/07/29 10:54:46;;;;;;;2.40;1.13;;;;;;;;;;5012466;28;20042;-69
2023/07/29 10:57:17;;;;;;;2.85;1.08;;;;;;;;;;5013923;28;20378;-69
2023/07/29 10:59:58;;;;;;;1.42;0.90;;;;;;;;;;5018025;28;20026;-68
2023/07/29 11:02:30;;;;;;;3.00;1.10;;;;;;;;;;5013346;28;20034;-69
2023/07/29 11:04:55;;;;;;;2.75;1.00;;;;;;;;;;5010710;28;20061;-70
2023/07/29 11:07:26;;;;;;;2.35;1.20;;;;;;;;;;5013796;28;20026;-70
2023/07/29 11:09:56;;;;;;;1.83;0.98;;;;;;;;;;5015398;28;20061;-69
2023/07/29 11:12:42;;;;;;;2.17;0.90;;;;;;;;;;5015256;28;20038;-70
2023/07/29 11:15:10;;;;;;;2.20;1.15;;;;;;;;;;5013764;28;20045;-70
2023/07/29 11:17:35;;;;;;;2.95;0.90;;;;;;;;;;5010776;28;20320;-70
2023/07/29 11:20:00;;;;;;;2.03;1.00;;;;;;;;;;5007919;28;20487;-68
2023/07/29 11:22:26;;;;;;;2.60;0.85;;;;;;;;;;5020405;28;20355;-69
2023/07/29 11:24:51;;;;;;;1.13;0.77;;;;;;;;;;5014167;28;20021;-70
2023/07/29 11:27:16;;;;;;;1.73;1.00;;;;;;;;;;5014188;28;20338;-69
2023/07/29 11:29:41;;;;;;;3.27;1.20;;;;;;;;;;5021526;28;20014;-69
2023/07/29 11:32:07;;;;;;;1.30;0.80;;;;;;;;;;5015293;28;20044;-71
2023/07/29 11:34:32;;;;;;;1.90;0.80;;;;;;;;;;5011608;28;20033;-70
2023/07/29 11:36:57;;;;;;;1.83;0.70;;;;;;;;;;5014841;28;20113;-70
2023/07/29 11:39:22;;;;;;;1.77;0.80;;;;;;;;;;5021534;28;20566;-70
2023/07/29 11:41:48;;;;;;;3.30;1.03;;;;;;;;;;5015197;28;20026;-70
2023/07/29 11:44:19;;;;;;;1.50;0.70;;;;;;;;;;5014437;28;20422;-70
2023/07/29 11:46:44;;;;;;;1.70;0.77;;;;;;;;;;5019351;28;20561;-70
2023/07/29 11:49:09;;;;;;;1.08;0.65;;;;;;;;;;5021634;28;20562;-70
2023/07/29 11:51:35;;;;;;;1.65;0.77;;;;;;;;;;5022088;28;20030;-70
2023/07/29 11:54:01;;;;;;;1.50;0.80;;;;;;;;;;5021489;28;20044;-70
2023/07/29 11:56:26;;;;;;;1.50;0.70;;;;;;;;;;5023397;28;20032;-69
2023/07/29 11:58:51;;;;;;;1.73;0.83;;;;;;;;;;5023633;28;20025;-69
2023/07/29 12:01:16;;;;;;;1.93;0.83;;;;;;;;;;5025546;28;20013;-70
2023/07/29 12:03:42;;;;;;;1.93;1.00;;;;;;;;;;5026964;28;20096;-71
2023/07/29 12:06:07;;;;;;;1.50;0.90;;;;;;;;;;5025384;28;20072;-70
2023/07/29 12:08:32;;;;;;;1.40;0.70;;;;;;;;;;5023521;28;20033;-70
2023/07/29 12:10:57;;;;;;;5.10;1.10;;;;;;;;;;5025929;28;20033;-69
2023/07/29 12:13:26;;;;;;;2.33;1.00;;;;;;;;;;5024116;28;20029;-69
2023/07/29 12:15:51;;;;;;;3.90;0.88;;;;;;;;;;5037036;28;20460;-70
2023/07/29 12:18:16;;;;;;;2.60;0.90;;;;;;;;;;5024763;28;20036;-69
2023/07/29 12:20:42;;;;;;;2.47;0.80;;;;;;;;;;5021104;28;20269;-70
2023/07/29 12:23:08;;;;;;;3.28;0.82;;;;;;;;;;5024487;28;20040;-70
2023/07/29 12:25:38;;;;;;;3.25;0.98;;;;;;;;;;5018032;28;20037;-74
2023/07/29 12:28:04;;;;;;;4.90;1.00;;;;;;;;;;5007236;28;20041;-73
2023/07/29 12:30:30;;;;;;;3.85;1.17;;;;;;;;;;5023734;28;20167;-76
2023/07/29 12:32:56;;;;;;;3.25;1.10;;;;;;;;;;5026901;28;20125;-78
2023/07/29 12:35:21;;;;;;;2.78;1.00;;;;;;;;;;5011259;28;20033;-72
2023/07/29 12:37:49;;;;;;;3.50;0.80;;;;;;;;;;5021730;28;20583;-74
2023/07/29 12:40:21;;;;;;;3.22;1.10;;;;;;;;;;5025815;28;20030;-72
2023/07/29 12:42:47;;;;;;;2.63;1.00;;;;;;;;;;5016316;28;20029;-75
2023/07/29 12:45:12;;;;;;;1.90;0.98;;;;;;;;;;5016540;28;20495;-72
2023/07/29 12:47:37;;;;;;;2.30;0.90;;;;;;;;;;5007877;28;20064;-74
2023/07/29 12:50:02;;;;;;;1.57;0.87;;;;;;;;;;5021447;28;20280;-73
2023/07/29 12:52:28;;;;;;;2.08;0.95;;;;;;;;;;5021162;28;20434;-74
2023/07/29 12:54:54;;;;;;;2.72;1.10;;;;;;;;;;5023123;28;20053;-74
2023/07/29 12:57:19;;;;;;;2.70;1.10;;;;;;;;;;5025521;28;20034;-75
2023/07/29 12:59:44;;;;;;;2.38;1.10;;;;;;;;;;5025193;28;20670;-75
2023/07/29 13:02:09;;;;;;;3.15;1.10;;;;;;;;;;5018398;28;20021;-73
2023/07/29 13:04:35;;;;;;;2.03;0.90;;;;;;;;;;5023933;28;20030;-72
2023/07/29 13:07:00;;;;;;;1.88;0.88;;;;;;;;;;5021207;28;20041;-72
2023/07/29 13:09:26;;;;;;;2.05;1.00;;;;;;;;;;5021607;28;20120;-71
2023/07/29 13:11:51;;;;;;;1.30;0.80;;;;;;;;;;5020062;28;20163;-72
2023/07/29 13:14:16;;;;;;;1.70;0.97;;;;;;;;;;5024683;28;20207;-73
2023/07/29 13:16:42;;;;;;;2.15;0.90;;;;;;;;;;5022654;28;20292;-73
2023/07/29 13:19:07;;;;;;;2.58;1.10;;;;;;;;;;5023956;28;20037;-73
2023/07/29 13:21:32;;;;;;;1.50;0.90;;;;;;;;;;5020008;28;20037;-72
2023/07/29 13:23:57;;;;;;;2.97;1.00;;;;;;;;;;5021643;28;20528;-72
2023/07/29 13:26:23;;;;;;;1.52;0.85;;;;;;;;;;5023735;28;20156;-72
2023/07/29 13:28:48;;;;;;;2.13;0.90;;;;;;;;;;5024377;28;20400;-72
2023/07/29 13:31:14;;;;;;;2.25;1.00;;;;;;;;;;5023883;28;20523;-72
2023/07/29 13:33:39;;;;;;;1.35;0.68;;;;;;;;;;5022960;28;20048;-71
2023/07/29 13:36:05;;;;;;;2.45;1.00;;;;;;;;;;5021919;28;20037;-72
2023/07/29 13:38:30;;;;;;;1.60;0.90;;;;;;;;;;5023902;28;20039;-71
2023/07/29 13:40:58;;;;;;;1.85;0.90;;;;;;;;;;5021904;28;20073;-74
2023/07/29 13:43:23;;;;;;;1.63;0.82;;;;;;;;;;5023971;28;20034;-71
2023/07/29 13:45:50;;;;;;;1.98;1.00;;;;;;;;;;5022741;28;20030;-70
2023/07/29 13:48:15;;;;;;;1.92;0.95;;;;;;;;;;5024234;28;20045;-70
2023/07/29 13:50:41;;;;;;;2.05;1.20;;;;;;;;;;5017173;28;20033;-68
2023/07/29 13:53:07;;;;;;;1.98;0.80;;;;;;;;;;5022375;28;20041;-70
2023/07/29 13:55:33;;;;;;;1.27;0.80;;;;;;;;;;5023588;28;20282;-70
2023/07/29 13:57:58;;;;;;;1.35;0.90;;;;;;;;;;5021966;28;20578;-71
2023/07/29 14:00:28;;;;;;;2.00;0.98;;;;;;;;;;5023396;28;20865;-72
2023/07/29 14:02:53;;;;;;;1.42;0.88;;;;;;;;;;5023743;28;20036;-70
2023/07/29 14:05:18;;;;;;;1.92;0.80;;;;;;;;;;5022887;28;20029;-73
2023/07/29 14:07:44;;;;;;;1.73;0.98;;;;;;;;;;5023295;28;20127;-73
2023/07/29 14:10:09;;;;;;;1.40;0.82;;;;;;;;;;5021149;28;20030;-73
2023/07/29 14:12:34;;;;;;;1.42;0.90;;;;;;;;;;5023458;28;20068;-72
2023/07/29 14:15:01;;;;;;;1.33;0.90;;;;;;;;;;5020165;28;20037;-71
2023/07/29 14:17:26;;;;;;;1.95;0.90;;;;;;;;;;5024128;28;20044;-73
2023/07/29 14:19:52;;;;;;;1.55;0.90;;;;;;;;;;5020002;28;20047;-71
2023/07/29 14:22:17;;;;;;;1.45;0.80;;;;;;;;;;5018203;28;20145;-72
2023/07/29 14:24:42;;;;;;;1.58;0.82;;;;;;;;;;5021818;28;20538;-72
2023/07/29 14:27:08;;;;;;;1.83;1.00;;;;;;;;;;5014970;28;20125;-73
2023/07/29 14:29:34;;;;;;;1.08;0.73;;;;;;;;;;5021841;28;20152;-73
2023/07/29 14:31:59;;;;;;;1.20;0.90;;;;;;;;;;5013394;28;20508;-72
2023/07/29 14:34:25;;;;;;;1.17;0.70;;;;;;;;;;5023401;28;20056;-71
2023/07/29 14:36:50;;;;;;;1.55;0.90;;;;;;;;;;5022319;28;20096;-73